sensor_id;sensor_type;location;lat;lon;timestamp;P1;durP1;ratioP1;P2;durP2;ratioP2
15104;SDS011;7653;48.994;9.212;2023-06-22T00:01:56;10.67;;;6.00;;
15104;SDS011;7653;48.994;9.212;2023-06-22T00:04:21;8.90;;;5.90;;
15104;SDS011;7653;48.994;9.212;2023-06-22T00:06:47;6.37;;;5.30;;
15104;SDS011;7653;48.994;9.212;2023-06-22T00:09:13;6.10;;;5.50;;
15104;SDS011;7653;48.994;9.212;2023-06-22T00:11:38;7.33;;;5.93;;
15104;SDS011;7653;48.994;9.212;2023-06-22T00:14:04;8.47;;;6.47;;
15104;SDS011;7653;48.994;9.212;2023-06-22T00:16:34;8.40;;;5.80;;
15104;SDS011;7653;48.994;9.212;2023-06-22T00:18:59;7.93;;;5.53;;
15104;SDS011;7653;48.994;9.212;2023-06-22T00:21:27;7.70;;;5.67;;
15104;SDS011;7653;48.994;9.212;2023-06-22T00:23:52;7.47;;;5.77;;
15104;SDS011;7653;48.994;9.212;2023-06-22T00:26:19;7.90;;;5.87;;
15104;SDS011;7653;48.994;9.212;2023-06-22T00:28:48;8.33;;;6.00;;
15104;SDS011;7653;48.994;9.212;2023-06-22T00:31:14;8.07;;;5.43;;
15104;SDS011;7653;48.994;9.212;2023-06-22T00:33:40;7.47;;;5.47;;
15104;SDS011;7653;48.994;9.212;2023-06-22T00:36:05;9.10;;;6.07;;
15104;SDS011;7653;48.994;9.212;2023-06-22T00:38:32;7.87;;;6.30;;
15104;SDS011;7653;48.994;9.212;2023-06-22T00:40:58;8.80;;;6.17;;
15104;SDS011;7653;48.994;9.212;2023-06-22T00:43:24;7.20;;;5.70;;
15104;SDS011;7653;48.994;9.212;2023-06-22T00:45:50;8.03;;;6.23;;
15104;SDS011;7653;48.994;9.212;2023-06-22T00:48:15;9.20;;;6.20;;
15104;SDS011;7653;48.994;9.212;2023-06-22T00:50:44;7.83;;;5.80;;
15104;SDS011;7653;48.994;9.212;2023-06-22T00:53:15;8.30;;;5.63;;
15104;SDS011;7653;48.994;9.212;2023-06-22T00:55:42;12.90;;;6.60;;
15104;SDS011;7653;48.994;9.212;2023-06-22T00:58:10;9.07;;;6.50;;
15104;SDS011;7653;48.994;9.212;2023-06-22T01:00:37;9.80;;;6.23;;
15104;SDS011;7653;48.994;9.212;2023-06-22T01:03:04;9.80;;;6.17;;
15104;SDS011;7653;48.994;9.212;2023-06-22T01:05:33;8.87;;;6.90;;
15104;SDS011;7653;48.994;9.212;2023-06-22T01:08:08;7.73;;;6.67;;
15104;SDS011;7653;48.994;9.212;2023-06-22T01:16:21;9.07;;;6.57;;
15104;SDS011;7653;48.994;9.212;2023-06-22T01:18:52;8.03;;;6.40;;
15104;SDS011;7653;48.994;9.212;2023-06-22T01:21:22;8.23;;;6.67;;
15104;SDS011;7653;48.994;9.212;2023-06-22T01:24:15;9.43;;;6.17;;
15104;SDS011;7653;48.994;9.212;2023-06-22T01:29:08;8.20;;;6.40;;
15104;SDS011;7653;48.994;9.212;2023-06-22T01:31:38;8.50;;;6.70;;
15104;SDS011;7653;48.994;9.212;2023-06-22T01:34:07;8.97;;;6.53;;
15104;SDS011;7653;48.994;9.212;2023-06-22T01:36:34;9.33;;;6.47;;
15104;SDS011;7653;48.994;9.212;2023-06-22T01:39:01;8.23;;;6.23;;
15104;SDS011;7653;48.994;9.212;2023-06-22T01:41:30;8.97;;;6.20;;
15104;SDS011;7653;48.994;9.212;2023-06-22T01:43:58;8.87;;;6.40;;
15104;SDS011;7653;48.994;9.212;2023-06-22T01:46:25;8.63;;;6.73;;
15104;SDS011;7653;48.994;9.212;2023-06-22T01:48:51;10.43;;;6.13;;
15104;SDS011;7653;48.994;9.212;2023-06-22T01:51:18;10.10;;;5.90;;
15104;SDS011;7653;48.994;9.212;2023-06-22T01:53:44;7.67;;;5.90;;
15104;SDS011;7653;48.994;9.212;2023-06-22T01:56:09;8.27;;;5.83;;
15104;SDS011;7653;48.994;9.212;2023-06-22T01:58:36;9.10;;;6.17;;
15104;SDS011;7653;48.994;9.212;2023-06-22T02:01:09;8.53;;;6.20;;
15104;SDS011;7653;48.994;9.212;2023-06-22T02:03:38;7.57;;;5.93;;
15104;SDS011;7653;48.994;9.212;2023-06-22T02:06:22;7.30;;;6.07;;
15104;SDS011;7653;48.994;9.212;2023-06-22T02:08:55;8.07;;;6.00;;
15104;SDS011;7653;48.994;9.212;2023-06-22T02:11:26;6.37;;;5.67;;
15104;SDS011;7653;48.994;9.212;2023-06-22T02:13:53;6.40;;;5.80;;
15104;SDS011;7653;48.994;9.212;2023-06-22T02:16:20;6.93;;;6.17;;
15104;SDS011;7653;48.994;9.212;2023-06-22T02:18:49;7.93;;;5.80;;
15104;SDS011;7653;48.994;9.212;2023-06-22T02:21:16;7.93;;;6.17;;
15104;SDS011;7653;48.994;9.212;2023-06-22T02:23:42;7.93;;;6.70;;
15104;SDS011;7653;48.994;9.212;2023-06-22T02:26:08;7.23;;;6.20;;
15104;SDS011;7653;48.994;9.212;2023-06-22T02:28:34;8.83;;;6.50;;
15104;SDS011;7653;48.994;9.212;2023-06-22T02:30:59;10.53;;;6.97;;
15104;SDS011;7653;48.994;9.212;2023-06-22T02:33:25;9.10;;;6.27;;
15104;SDS011;7653;48.994;9.212;2023-06-22T02:35:50;9.70;;;6.83;;
15104;SDS011;7653;48.994;9.212;2023-06-22T02:38:16;9.60;;;6.77;;
15104;SDS011;7653;48.994;9.212;2023-06-22T02:40:42;7.77;;;6.97;;
15104;SDS011;7653;48.994;9.212;2023-06-22T02:43:08;8.57;;;6.70;;
15104;SDS011;7653;48.994;9.212;2023-06-22T02:45:34;7.80;;;7.00;;
15104;SDS011;7653;48.994;9.212;2023-06-22T02:47:59;12.17;;;7.30;;
15104;SDS011;7653;48.994;9.212;2023-06-22T02:50:25;8.17;;;7.37;;
15104;SDS011;7653;48.994;9.212;2023-06-22T02:52:50;8.27;;;6.93;;
15104;SDS011;7653;48.994;9.212;2023-06-22T02:55:16;8.87;;;7.13;;
15104;SDS011;7653;48.994;9.212;2023-06-22T02:57:42;9.43;;;6.93;;
15104;SDS011;7653;48.994;9.212;2023-06-22T03:00:09;8.10;;;7.30;;
15104;SDS011;7653;48.994;9.212;2023-06-22T03:02:43;7.83;;;6.63;;
15104;SDS011;7653;48.994;9.212;2023-06-22T03:05:09;9.53;;;7.10;;
15104;SDS011;7653;48.994;9.212;2023-06-22T03:07:41;8.73;;;7.70;;
15104;SDS011;7653;48.994;9.212;2023-06-22T03:10:08;7.97;;;7.13;;
15104;SDS011;7653;48.994;9.212;2023-06-22T03:12:35;9.20;;;7.63;;
15104;SDS011;7653;48.994;9.212;2023-06-22T03:15:01;8.73;;;7.50;;
15104;SDS011;7653;48.994;9.212;2023-06-22T03:17:26;7.53;;;6.83;;
15104;SDS011;7653;48.994;9.212;2023-06-22T03:19:52;10.77;;;7.60;;
15104;SDS011;7653;48.994;9.212;2023-06-22T03:22:17;11.17;;;7.40;;
15104;SDS011;7653;48.994;9.212;2023-06-22T03:24:43;10.50;;;7.57;;
15104;SDS011;7653;48.994;9.212;2023-06-22T03:27:09;7.60;;;6.90;;
15104;SDS011;7653;48.994;9.212;2023-06-22T03:29:34;7.80;;;7.00;;
15104;SDS011;7653;48.994;9.212;2023-06-22T03:32:00;10.07;;;7.23;;
15104;SDS011;7653;48.994;9.212;2023-06-22T03:34:26;9.63;;;6.83;;
15104;SDS011;7653;48.994;9.212;2023-06-22T03:36:51;8.03;;;7.23;;
15104;SDS011;7653;48.994;9.212;2023-06-22T03:39:17;9.20;;;7.27;;
15104;SDS011;7653;48.994;9.212;2023-06-22T03:41:42;10.33;;;6.77;;
15104;SDS011;7653;48.994;9.212;2023-06-22T03:44:08;8.20;;;7.10;;
15104;SDS011;7653;48.994;9.212;2023-06-22T03:46:37;9.47;;;6.80;;
15104;SDS011;7653;48.994;9.212;2023-06-22T03:49:03;9.23;;;7.33;;
15104;SDS011;7653;48.994;9.212;2023-06-22T03:51:28;9.13;;;6.13;;
15104;SDS011;7653;48.994;9.212;2023-06-22T03:53:54;7.20;;;6.33;;
15104;SDS011;7653;48.994;9.212;2023-06-22T03:56:20;10.17;;;7.00;;
15104;SDS011;7653;48.994;9.212;2023-06-22T03:58:46;9.43;;;6.80;;
15104;SDS011;7653;48.994;9.212;2023-06-22T04:01:11;10.10;;;7.53;;
15104;SDS011;7653;48.994;9.212;2023-06-22T04:03:38;9.77;;;7.10;;
15104;SDS011;7653;48.994;9.212;2023-06-22T04:06:03;10.00;;;7.47;;
15104;SDS011;7653;48.994;9.212;2023-06-22T04:08:29;9.43;;;6.23;;
15104;SDS011;7653;48.994;9.212;2023-06-22T04:10:55;9.43;;;7.43;;
15104;SDS011;7653;48.994;9.212;2023-06-22T04:13:21;10.07;;;7.37;;
15104;SDS011;7653;48.994;9.212;2023-06-22T04:15:46;12.17;;;7.27;;
15104;SDS011;7653;48.994;9.212;2023-06-22T04:18:12;9.90;;;7.17;;
15104;SDS011;7653;48.994;9.212;2023-06-22T04:20:38;11.47;;;6.83;;
15104;SDS011;7653;48.994;9.212;2023-06-22T04:23:04;7.60;;;6.90;;
15104;SDS011;7653;48.994;9.212;2023-06-22T04:25:29;7.77;;;5.80;;
15104;SDS011;7653;48.994;9.212;2023-06-22T04:27:55;7.43;;;6.57;;
15104;SDS011;7653;48.994;9.212;2023-06-22T04:30:21;7.57;;;6.43;;
15104;SDS011;7653;48.994;9.212;2023-06-22T04:32:47;7.73;;;6.00;;
15104;SDS011;7653;48.994;9.212;2023-06-22T04:35:25;9.13;;;6.20;;
15104;SDS011;7653;48.994;9.212;2023-06-22T04:37:52;10.17;;;6.70;;
15104;SDS011;7653;48.994;9.212;2023-06-22T04:40:20;8.43;;;6.40;;
15104;SDS011;7653;48.994;9.212;2023-06-22T04:42:49;8.77;;;6.80;;
15104;SDS011;7653;48.994;9.212;2023-06-22T04:45:18;9.53;;;7.43;;
15104;SDS011;7653;48.994;9.212;2023-06-22T04:47:45;7.60;;;6.03;;
15104;SDS011;7653;48.994;9.212;2023-06-22T04:50:14;7.47;;;6.17;;
15104;SDS011;7653;48.994;9.212;2023-06-22T04:52:40;6.83;;;6.17;;
15104;SDS011;7653;48.994;9.212;2023-06-22T04:55:06;10.57;;;6.43;;
15104;SDS011;7653;48.994;9.212;2023-06-22T04:57:32;10.73;;;6.93;;
15104;SDS011;7653;48.994;9.212;2023-06-22T05:00:01;8.93;;;7.50;;
15104;SDS011;7653;48.994;9.212;2023-06-22T05:02:38;9.07;;;7.47;;
15104;SDS011;7653;48.994;9.212;2023-06-22T05:05:04;7.93;;;7.13;;
15104;SDS011;7653;48.994;9.212;2023-06-22T05:07:36;10.43;;;7.93;;
15104;SDS011;7653;48.994;9.212;2023-06-22T05:10:05;11.60;;;7.23;;
15104;SDS011;7653;48.994;9.212;2023-06-22T05:12:31;13.07;;;7.60;;
15104;SDS011;7653;48.994;9.212;2023-06-22T05:14:56;10.27;;;7.37;;
15104;SDS011;7653;48.994;9.212;2023-06-22T05:17:23;10.43;;;7.50;;
15104;SDS011;7653;48.994;9.212;2023-06-22T05:19:49;10.53;;;8.03;;
15104;SDS011;7653;48.994;9.212;2023-06-22T05:22:15;10.83;;;7.30;;
15104;SDS011;7653;48.994;9.212;2023-06-22T05:24:41;10.03;;;7.73;;
15104;SDS011;7653;48.994;9.212;2023-06-22T05:27:11;12.10;;;7.80;;
15104;SDS011;7653;48.994;9.212;2023-06-22T05:29:38;9.23;;;7.30;;
15104;SDS011;7653;48.994;9.212;2023-06-22T05:32:04;12.70;;;8.27;;
15104;SDS011;7653;48.994;9.212;2023-06-22T05:34:30;10.50;;;7.20;;
15104;SDS011;7653;48.994;9.212;2023-06-22T05:36:56;10.10;;;8.17;;
15104;SDS011;7653;48.994;9.212;2023-06-22T05:39:23;8.73;;;7.20;;
15104;SDS011;7653;48.994;9.212;2023-06-22T05:41:50;10.30;;;7.67;;
15104;SDS011;7653;48.994;9.212;2023-06-22T05:44:16;10.97;;;7.57;;
15104;SDS011;7653;48.994;9.212;2023-06-22T05:46:42;10.77;;;7.60;;
15104;SDS011;7653;48.994;9.212;2023-06-22T05:49:09;10.20;;;6.97;;
15104;SDS011;7653;48.994;9.212;2023-06-22T05:51:36;8.30;;;6.47;;
15104;SDS011;7653;48.994;9.212;2023-06-22T05:54:02;7.53;;;5.80;;
15104;SDS011;7653;48.994;9.212;2023-06-22T05:56:27;7.40;;;5.57;;
15104;SDS011;7653;48.994;9.212;2023-06-22T05:58:53;6.47;;;5.73;;
15104;SDS011;7653;48.994;9.212;2023-06-22T06:01:19;6.00;;;5.40;;
15104;SDS011;7653;48.994;9.212;2023-06-22T06:03:45;7.50;;;5.73;;
15104;SDS011;7653;48.994;9.212;2023-06-22T06:06:11;6.27;;;5.20;;
15104;SDS011;7653;48.994;9.212;2023-06-22T06:08:37;8.47;;;5.63;;
15104;SDS011;7653;48.994;9.212;2023-06-22T06:11:03;7.97;;;5.40;;
15104;SDS011;7653;48.994;9.212;2023-06-22T06:13:29;11.83;;;5.70;;
15104;SDS011;7653;48.994;9.212;2023-06-22T06:15:54;7.93;;;6.03;;
15104;SDS011;7653;48.994;9.212;2023-06-22T06:18:21;7.33;;;5.20;;
15104;SDS011;7653;48.994;9.212;2023-06-22T06:20:46;7.03;;;5.73;;
15104;SDS011;7653;48.994;9.212;2023-06-22T06:23:12;8.17;;;4.87;;
15104;SDS011;7653;48.994;9.212;2023-06-22T06:25:38;7.30;;;5.73;;
15104;SDS011;7653;48.994;9.212;2023-06-22T06:28:03;7.27;;;5.73;;
15104;SDS011;7653;48.994;9.212;2023-06-22T06:30:30;8.50;;;5.57;;
15104;SDS011;7653;48.994;9.212;2023-06-22T06:32:56;5.83;;;5.23;;
15104;SDS011;7653;48.994;9.212;2023-06-22T06:35:21;6.33;;;5.37;;
15104;SDS011;7653;48.994;9.212;2023-06-22T06:37:48;5.77;;;4.83;;
15104;SDS011;7653;48.994;9.212;2023-06-22T06:40:15;7.03;;;5.70;;
15104;SDS011;7653;48.994;9.212;2023-06-22T06:42:43;6.47;;;5.43;;
15104;SDS011;7653;48.994;9.212;2023-06-22T06:45:20;7.33;;;5.03;;
15104;SDS011;7653;48.994;9.212;2023-06-22T06:47:47;11.00;;;6.33;;
15104;SDS011;7653;48.994;9.212;2023-06-22T06:50:14;6.63;;;5.10;;
15104;SDS011;7653;48.994;9.212;2023-06-22T06:52:40;5.53;;;4.80;;
15104;SDS011;7653;48.994;9.212;2023-06-22T06:55:06;6.10;;;5.50;;
15104;SDS011;7653;48.994;9.212;2023-06-22T06:57:33;5.85;;;5.03;;
15104;SDS011;7653;48.994;9.212;2023-06-22T06:59:59;8.13;;;4.90;;
15104;SDS011;7653;48.994;9.212;2023-06-22T07:02:25;8.68;;;5.55;;
15104;SDS011;7653;48.994;9.212;2023-06-22T07:04:52;6.63;;;5.13;;
15104;SDS011;7653;48.994;9.212;2023-06-22T07:07:20;6.75;;;4.97;;
15104;SDS011;7653;48.994;9.212;2023-06-22T07:09:46;6.85;;;5.05;;
15104;SDS011;7653;48.994;9.212;2023-06-22T07:12:12;6.50;;;4.85;;
15104;SDS011;7653;48.994;9.212;2023-06-22T07:14:37;6.72;;;5.05;;
15104;SDS011;7653;48.994;9.212;2023-06-22T07:17:03;8.30;;;5.32;;
15104;SDS011;7653;48.994;9.212;2023-06-22T07:19:29;7.00;;;4.95;;
15104;SDS011;7653;48.994;9.212;2023-06-22T07:21:56;6.22;;;4.50;;
15104;SDS011;7653;48.994;9.212;2023-06-22T07:24:22;6.43;;;5.20;;
15104;SDS011;7653;48.994;9.212;2023-06-22T07:26:48;5.70;;;5.10;;
15104;SDS011;7653;48.994;9.212;2023-06-22T07:29:15;5.88;;;4.88;;
15104;SDS011;7653;48.994;9.212;2023-06-22T07:31:48;6.75;;;4.95;;
15104;SDS011;7653;48.994;9.212;2023-06-22T07:34:16;8.63;;;4.95;;
15104;SDS011;7653;48.994;9.212;2023-06-22T07:36:42;5.57;;;4.20;;
15104;SDS011;7653;48.994;9.212;2023-06-22T07:39:08;6.32;;;4.70;;
15104;SDS011;7653;48.994;9.212;2023-06-22T07:41:34;5.53;;;4.28;;
15104;SDS011;7653;48.994;9.212;2023-06-22T07:44:00;6.43;;;4.50;;
15104;SDS011;7653;48.994;9.212;2023-06-22T07:46:27;8.02;;;4.72;;
15104;SDS011;7653;48.994;9.212;2023-06-22T07:48:55;6.22;;;4.68;;
15104;SDS011;7653;48.994;9.212;2023-06-22T07:51:21;9.48;;;4.57;;
15104;SDS011;7653;48.994;9.212;2023-06-22T07:53:47;5.47;;;4.45;;
15104;SDS011;7653;48.994;9.212;2023-06-22T07:56:13;9.23;;;4.60;;
15104;SDS011;7653;48.994;9.212;2023-06-22T07:58:43;5.25;;;4.45;;
15104;SDS011;7653;48.994;9.212;2023-06-22T08:01:09;5.72;;;4.30;;
15104;SDS011;7653;48.994;9.212;2023-06-22T08:03:36;5.78;;;4.63;;
15104;SDS011;7653;48.994;9.212;2023-06-22T08:06:01;8.20;;;4.72;;
15104;SDS011;7653;48.994;9.212;2023-06-22T08:08:27;5.70;;;5.00;;
15104;SDS011;7653;48.994;9.212;2023-06-22T08:10:52;6.57;;;4.40;;
15104;SDS011;7653;48.994;9.212;2023-06-22T08:13:18;6.78;;;4.78;;
15104;SDS011;7653;48.994;9.212;2023-06-22T08:15:44;7.68;;;4.32;;
15104;SDS011;7653;48.994;9.212;2023-06-22T08:18:10;9.63;;;4.85;;
15104;SDS011;7653;48.994;9.212;2023-06-22T08:20:35;7.55;;;4.95;;
15104;SDS011;7653;48.994;9.212;2023-06-22T08:23:01;6.97;;;4.32;;
15104;SDS011;7653;48.994;9.212;2023-06-22T08:25:31;4.93;;;4.30;;
15104;SDS011;7653;48.994;9.212;2023-06-22T08:27:58;5.70;;;4.68;;
15104;SDS011;7653;48.994;9.212;2023-06-22T08:30:23;5.68;;;4.10;;
15104;SDS011;7653;48.994;9.212;2023-06-22T08:32:49;7.85;;;4.72;;
15104;SDS011;7653;48.994;9.212;2023-06-22T08:35:14;6.13;;;4.65;;
15104;SDS011;7653;48.994;9.212;2023-06-22T08:37:40;5.78;;;4.40;;
15104;SDS011;7653;48.994;9.212;2023-06-22T08:40:07;9.23;;;4.90;;
15104;SDS011;7653;48.994;9.212;2023-06-22T08:42:34;7.05;;;4.30;;
15104;SDS011;7653;48.994;9.212;2023-06-22T08:45:01;8.82;;;4.97;;
15104;SDS011;7653;48.994;9.212;2023-06-22T08:47:27;5.75;;;4.68;;
15104;SDS011;7653;48.994;9.212;2023-06-22T08:49:53;6.55;;;4.90;;
15104;SDS011;7653;48.994;9.212;2023-06-22T08:52:19;5.80;;;4.45;;
15104;SDS011;7653;48.994;9.212;2023-06-22T08:54:45;5.97;;;4.47;;
15104;SDS011;7653;48.994;9.212;2023-06-22T08:57:11;7.95;;;4.47;;
15104;SDS011;7653;48.994;9.212;2023-06-22T08:59:37;7.40;;;4.53;;
15104;SDS011;7653;48.994;9.212;2023-06-22T09:02:03;8.73;;;4.97;;
15104;SDS011;7653;48.994;9.212;2023-06-22T09:04:29;6.60;;;4.88;;
15104;SDS011;7653;48.994;9.212;2023-06-22T09:06:54;8.20;;;4.95;;
15104;SDS011;7653;48.994;9.212;2023-06-22T09:09:21;6.82;;;4.53;;
15104;SDS011;7653;48.994;9.212;2023-06-22T09:11:46;6.75;;;4.75;;
15104;SDS011;7653;48.994;9.212;2023-06-22T09:14:12;5.18;;;4.63;;
15104;SDS011;7653;48.994;9.212;2023-06-22T09:16:38;13.52;;;4.88;;
15104;SDS011;7653;48.994;9.212;2023-06-22T09:19:03;6.10;;;5.00;;
15104;SDS011;7653;48.994;9.212;2023-06-22T09:21:31;7.97;;;4.78;;
15104;SDS011;7653;48.994;9.212;2023-06-22T09:23:57;8.48;;;5.20;;
15104;SDS011;7653;48.994;9.212;2023-06-22T09:26:23;7.47;;;4.70;;
15104;SDS011;7653;48.994;9.212;2023-06-22T09:28:49;7.03;;;5.00;;
15104;SDS011;7653;48.994;9.212;2023-06-22T09:31:15;6.45;;;4.65;;
15104;SDS011;7653;48.994;9.212;2023-06-22T09:33:42;8.30;;;5.15;;
15104;SDS011;7653;48.994;9.212;2023-06-22T09:36:08;6.63;;;4.85;;
15104;SDS011;7653;48.994;9.212;2023-06-22T09:38:37;7.25;;;5.43;;
15104;SDS011;7653;48.994;9.212;2023-06-22T09:41:04;6.82;;;4.78;;
15104;SDS011;7653;48.994;9.212;2023-06-22T09:43:30;7.85;;;5.32;;
15104;SDS011;7653;48.994;9.212;2023-06-22T09:46:01;5.55;;;4.78;;
15104;SDS011;7653;48.994;9.212;2023-06-22T09:48:27;6.05;;;4.78;;
15104;SDS011;7653;48.994;9.212;2023-06-22T09:51:01;8.57;;;4.78;;
15104;SDS011;7653;48.994;9.212;2023-06-22T09:53:31;8.00;;;5.13;;
15104;SDS011;7653;48.994;9.212;2023-06-22T09:56:01;7.05;;;4.60;;
15104;SDS011;7653;48.994;9.212;2023-06-22T09:58:34;5.93;;;4.15;;
15104;SDS011;7653;48.994;9.212;2023-06-22T10:01:39;9.18;;;4.53;;
15104;SDS011;7653;48.994;9.212;2023-06-22T10:04:08;6.55;;;4.32;;
15104;SDS011;7653;48.994;9.212;2023-06-22T10:06:34;8.05;;;4.18;;
15104;SDS011;7653;48.994;9.212;2023-06-22T10:09:08;7.03;;;4.35;;
15104;SDS011;7653;48.994;9.212;2023-06-22T10:11:40;9.27;;;4.47;;
15104;SDS011;7653;48.994;9.212;2023-06-22T10:14:18;9.55;;;4.57;;
15104;SDS011;7653;48.994;9.212;2023-06-22T10:16:52;8.90;;;4.75;;
15104;SDS011;7653;48.994;9.212;2023-06-22T10:19:37;8.93;;;4.38;;
15104;SDS011;7653;48.994;9.212;2023-06-22T10:22:07;9.30;;;4.65;;
15104;SDS011;7653;48.994;9.212;2023-06-22T10:24:40;8.77;;;4.88;;
15104;SDS011;7653;48.994;9.212;2023-06-22T10:27:15;9.23;;;4.32;;
15104;SDS011;7653;48.994;9.212;2023-06-22T10:30:10;8.52;;;4.38;;
15104;SDS011;7653;48.994;9.212;2023-06-22T10:32:50;6.88;;;4.85;;
15104;SDS011;7653;48.994;9.212;2023-06-22T10:35:24;8.23;;;5.00;;
15104;SDS011;7653;48.994;9.212;2023-06-22T10:38:06;5.93;;;4.50;;
15104;SDS011;7653;48.994;9.212;2023-06-22T12:09:04;10.45;;;4.45;;
15104;SDS011;7653;48.994;9.212;2023-06-22T12:19:14;9.68;;;5.13;;
15104;SDS011;7653;48.994;9.212;2023-06-22T12:25:17;9.30;;;4.53;;
15104;SDS011;7653;48.994;9.212;2023-06-22T15:31:06;11.00;;;3.63;;
15104;SDS011;7653;48.994;9.212;2023-06-22T15:33:37;8.38;;;2.92;;
15104;SDS011;7653;48.994;9.212;2023-06-22T15:36:47;11.25;;;3.65;;
15104;SDS011;7653;48.994;9.212;2023-06-22T15:42:26;8.32;;;3.38;;
15104;SDS011;7653;48.994;9.212;2023-06-22T15:45:07;9.40;;;3.65;;
15104;SDS011;7653;48.994;9.212;2023-06-22T15:47:50;8.82;;;3.38;;
15104;SDS011;7653;48.994;9.212;2023-06-22T15:50:42;8.45;;;3.60;;
15104;SDS011;7653;48.994;9.212;2023-06-22T15:53:43;8.23;;;3.78;;
15104;SDS011;7653;48.994;9.212;2023-06-22T15:56:48;8.60;;;3.53;;
15104;SDS011;7653;48.994;9.212;2023-06-22T16:19:46;8.48;;;3.65;;
15104;SDS011;7653;48.994;9.212;2023-06-22T16:22:35;10.95;;;4.28;;
15104;SDS011;7653;48.994;9.212;2023-06-22T16:25:07;8.27;;;4.25;;
15104;SDS011;7653;48.994;9.212;2023-06-22T16:27:33;8.85;;;4.25;;
15104;SDS011;7653;48.994;9.212;2023-06-22T16:30:08;8.90;;;4.13;;
15104;SDS011;7653;48.994;9.212;2023-06-22T16:40:18;9.85;;;3.97;;
15104;SDS011;7653;48.994;9.212;2023-06-22T16:53:21;7.07;;;2.90;;
15104;SDS011;7653;48.994;9.212;2023-06-22T17:00:10;10.07;;;2.85;;
15104;SDS011;7653;48.994;9.212;2023-06-22T17:02:54;5.50;;;2.80;;
15104;SDS011;7653;48.994;9.212;2023-06-22T17:05:24;8.75;;;2.78;;
15104;SDS011;7653;48.994;9.212;2023-06-22T17:07:56;7.78;;;2.80;;
15104;SDS011;7653;48.994;9.212;2023-06-22T17:10:26;8.73;;;3.20;;
15104;SDS011;7653;48.994;9.212;2023-06-22T17:12:52;6.35;;;2.75;;
15104;SDS011;7653;48.994;9.212;2023-06-22T17:15:17;8.32;;;2.97;;
15104;SDS011;7653;48.994;9.212;2023-06-22T17:17:46;10.45;;;2.88;;
15104;SDS011;7653;48.994;9.212;2023-06-22T17:20:12;9.73;;;2.97;;
15104;SDS011;7653;48.994;9.212;2023-06-22T17:22:38;10.43;;;2.42;;
15104;SDS011;7653;48.994;9.212;2023-06-22T17:25:10;9.45;;;2.70;;
15104;SDS011;7653;48.994;9.212;2023-06-22T17:27:39;5.18;;;2.38;;
15104;SDS011;7653;48.994;9.212;2023-06-22T17:32:46;6.47;;;2.60;;
15104;SDS011;7653;48.994;9.212;2023-06-22T17:35:12;9.07;;;3.20;;
15104;SDS011;7653;48.994;9.212;2023-06-22T17:40:18;6.90;;;2.72;;
15104;SDS011;7653;48.994;9.212;2023-06-22T17:42:45;5.75;;;2.58;;
15104;SDS011;7653;48.994;9.212;2023-06-22T17:45:17;7.70;;;2.90;;
15104;SDS011;7653;48.994;9.212;2023-06-22T17:47:52;9.15;;;3.22;;
15104;SDS011;7653;48.994;9.212;2023-06-22T17:50:18;7.97;;;3.47;;
15104;SDS011;7653;48.994;9.212;2023-06-22T17:52:54;6.40;;;3.10;;
15104;SDS011;7653;48.994;9.212;2023-06-22T17:55:21;8.77;;;3.17;;
15104;SDS011;7653;48.994;9.212;2023-06-22T17:57:49;6.90;;;2.95;;
15104;SDS011;7653;48.994;9.212;2023-06-22T18:00:19;10.18;;;3.63;;
15104;SDS011;7653;48.994;9.212;2023-06-22T18:02:45;8.18;;;3.30;;
15104;SDS011;7653;48.994;9.212;2023-06-22T18:05:13;9.73;;;3.25;;
15104;SDS011;7653;48.994;9.212;2023-06-22T18:07:40;9.93;;;3.28;;
15104;SDS011;7653;48.994;9.212;2023-06-22T18:10:06;11.57;;;3.55;;
15104;SDS011;7653;48.994;9.212;2023-06-22T18:12:34;10.65;;;3.53;;
15104;SDS011;7653;48.994;9.212;2023-06-22T18:15:01;11.73;;;3.70;;
15104;SDS011;7653;48.994;9.212;2023-06-22T18:17:27;8.50;;;3.85;;
15104;SDS011;7653;48.994;9.212;2023-06-22T18:19:57;7.38;;;3.08;;
15104;SDS011;7653;48.994;9.212;2023-06-22T18:22:26;8.85;;;3.42;;
15104;SDS011;7653;48.994;9.212;2023-06-22T18:24:58;11.25;;;3.83;;
15104;SDS011;7653;48.994;9.212;2023-06-22T18:27:26;10.55;;;3.30;;
15104;SDS011;7653;48.994;9.212;2023-06-22T18:29:53;8.77;;;3.47;;
15104;SDS011;7653;48.994;9.212;2023-06-22T18:32:20;10.77;;;3.42;;
15104;SDS011;7653;48.994;9.212;2023-06-22T18:34:46;8.85;;;3.60;;
15104;SDS011;7653;48.994;9.212;2023-06-22T18:37:12;10.40;;;3.75;;
15104;SDS011;7653;48.994;9.212;2023-06-22T18:39:40;8.55;;;3.50;;
15104;SDS011;7653;48.994;9.212;2023-06-22T18:42:09;5.55;;;3.40;;
15104;SDS011;7653;48.994;9.212;2023-06-22T18:44:35;6.70;;;3.47;;
15104;SDS011;7653;48.994;9.212;2023-06-22T18:47:05;10.45;;;3.95;;
15104;SDS011;7653;48.994;9.212;2023-06-22T18:52:24;6.30;;;3.20;;
15104;SDS011;7653;48.994;9.212;2023-06-22T18:54:52;8.27;;;3.40;;
15104;SDS011;7653;48.994;9.212;2023-06-22T19:05:15;10.48;;;4.07;;
15104;SDS011;7653;48.994;9.212;2023-06-22T19:08:01;10.63;;;3.55;;
15104;SDS011;7653;48.994;9.212;2023-06-22T19:15:44;8.50;;;3.10;;
15104;SDS011;7653;48.994;9.212;2023-06-22T19:18:13;7.25;;;3.08;;
15104;SDS011;7653;48.994;9.212;2023-06-22T19:20:39;9.05;;;3.00;;
15104;SDS011;7653;48.994;9.212;2023-06-22T19:23:04;8.05;;;3.08;;
15104;SDS011;7653;48.994;9.212;2023-06-22T19:25:30;5.63;;;2.65;;
15104;SDS011;7653;48.994;9.212;2023-06-22T19:27:59;8.32;;;3.10;;
15104;SDS011;7653;48.994;9.212;2023-06-22T19:30:25;10.32;;;2.58;;
15104;SDS011;7653;48.994;9.212;2023-06-22T19:32:52;4.80;;;2.88;;
15104;SDS011;7653;48.994;9.212;2023-06-22T19:35:21;6.25;;;2.40;;
15104;SDS011;7653;48.994;9.212;2023-06-22T19:37:47;6.85;;;2.78;;
15104;SDS011;7653;48.994;9.212;2023-06-22T19:40:13;7.68;;;2.70;;
15104;SDS011;7653;48.994;9.212;2023-06-22T19:42:40;7.60;;;2.78;;
15104;SDS011;7653;48.994;9.212;2023-06-22T19:45:07;6.97;;;3.33;;
15104;SDS011;7653;48.994;9.212;2023-06-22T19:47:35;7.10;;;2.75;;
15104;SDS011;7653;48.994;9.212;2023-06-22T19:50:02;5.57;;;2.65;;
15104;SDS011;7653;48.994;9.212;2023-06-22T19:52:33;7.55;;;2.83;;
15104;SDS011;7653;48.994;9.212;2023-06-22T19:54:59;5.80;;;2.53;;
15104;SDS011;7653;48.994;9.212;2023-06-22T19:57:25;6.25;;;2.72;;
15104;SDS011;7653;48.994;9.212;2023-06-22T19:59:51;5.82;;;2.70;;
15104;SDS011;7653;48.994;9.212;2023-06-22T20:02:17;5.57;;;3.03;;
15104;SDS011;7653;48.994;9.212;2023-06-22T20:04:43;5.22;;;2.67;;
15104;SDS011;7653;48.994;9.212;2023-06-22T20:07:09;6.95;;;2.53;;
15104;SDS011;7653;48.994;9.212;2023-06-22T20:09:34;3.83;;;2.50;;
15104;SDS011;7653;48.994;9.212;2023-06-22T20:12:03;6.95;;;2.50;;
15104;SDS011;7653;48.994;9.212;2023-06-22T20:14:34;4.68;;;2.63;;
15104;SDS011;7653;48.994;9.212;2023-06-22T20:17:00;4.97;;;2.50;;
15104;SDS011;7653;48.994;9.212;2023-06-22T20:19:35;5.88;;;2.35;;
15104;SDS011;7653;48.994;9.212;2023-06-22T20:22:04;6.13;;;2.47;;
15104;SDS011;7653;48.994;9.212;2023-06-22T20:24:30;6.10;;;2.77;;
15104;SDS011;7653;48.994;9.212;2023-06-22T20:26:57;6.20;;;2.70;;
15104;SDS011;7653;48.994;9.212;2023-06-22T20:52:52;2.03;;;0.50;;
15104;SDS011;7653;48.994;9.212;2023-06-22T20:55:17;0.23;;;0.23;;
15104;SDS011;7653;48.994;9.212;2023-06-22T20:57:43;0.90;;;0.30;;
15104;SDS011;7653;48.994;9.212;2023-06-22T21:00:09;0.10;;;0.10;;
15104;SDS011;7653;48.994;9.212;2023-06-22T21:02:36;0.47;;;0.27;;
15104;SDS011;7653;48.994;9.212;2023-06-22T21:05:02;0.73;;;0.70;;
15104;SDS011;7653;48.994;9.212;2023-06-22T21:07:27;1.73;;;0.43;;
15104;SDS011;7653;48.994;9.212;2023-06-22T21:09:56;0.97;;;0.70;;
15104;SDS011;7653;48.994;9.212;2023-06-22T21:12:22;1.43;;;0.70;;
15104;SDS011;7653;48.994;9.212;2023-06-22T21:14:47;1.23;;;0.70;;
15104;SDS011;7653;48.994;9.212;2023-06-22T21:17:15;1.80;;;0.90;;
15104;SDS011;7653;48.994;9.212;2023-06-22T21:19:42;1.27;;;0.70;;
15104;SDS011;7653;48.994;9.212;2023-06-22T21:22:08;1.27;;;0.70;;
15104;SDS011;7653;48.994;9.212;2023-06-22T21:24:34;2.13;;;0.70;;
15104;SDS011;7653;48.994;9.212;2023-06-22T21:26:59;0.93;;;0.70;;
15104;SDS011;7653;48.994;9.212;2023-06-22T21:29:25;1.53;;;0.70;;